Time;durP1;ratioP1;P1;durP2;ratioP2;P2;SDS_P1;SDS_P2;PMS_P1;PMS_P2;Temp;Humidity;BMP_temperature;BMP_pressure;BME280_temperature;BME280_humidity;BME280_pressure;Samples;Min_cycle;Max_cycle;Signal;HPM_P1;HPM_P2
2020/12/18 00:01:20;;;;;;;17.27;15.20;;;8.80;99.90;;;;;;5065904;28;20486;-47
2020/12/18 00:03:47;;;;;;;20.67;16.37;;;8.70;99.90;;;;;;5054183;28;20478;-47
2020/12/18 00:06:14;;;;;;;17.87;15.33;;;8.80;99.90;;;;;;5054530;28;20438;-47
2020/12/18 00:08:41;;;;;;;18.10;14.30;;;9.10;99.90;;;;;;5054299;28;20536;-47
2020/12/18 00:11:07;;;;;;;19.10;14.87;;;8.70;99.90;;;;;;5054407;28;20474;-46
2020/12/18 00:13:35;;;;;;;19.53;15.33;;;8.70;99.90;;;;;;5054105;28;20931;-46
2020/12/18 00:16:01;;;;;;;17.43;15.03;;;8.90;99.90;;;;;;5054268;28;20427;-46
2020/12/18 00:18:28;;;;;;;17.90;13.93;;;8.80;99.90;;;;;;5054229;28;20457;-45
2020/12/18 00:20:54;;;;;;;17.90;14.23;;;8.80;99.90;;;;;;5061329;28;20464;-46
2020/12/18 00:23:21;;;;;;;19.60;16.00;;;8.70;99.90;;;;;;5070202;28;20518;-47
2020/12/18 00:25:49;;;;;;;18.20;15.30;;;8.80;99.90;;;;;;5073368;28;20425;-46
2020/12/18 00:28:16;;;;;;;16.50;14.80;;;8.50;99.90;;;;;;5074110;28;20453;-47
2020/12/18 00:30:44;;;;;;;18.30;15.40;;;8.80;99.90;;;;;;5074124;28;20491;-47
2020/12/18 00:33:10;;;;;;;16.67;13.97;;;8.40;99.90;;;;;;5073675;28;20438;-47
2020/12/18 00:35:37;;;;;;;16.63;14.83;;;8.80;99.90;;;;;;5074020;28;20460;-47
2020/12/18 00:38:03;;;;;;;18.30;15.07;;;8.30;99.90;;;;;;5073701;28;20460;-45
2020/12/18 00:40:30;;;;;;;17.60;14.60;;;8.60;99.90;;;;;;5073979;28;20436;-44
2020/12/18 00:42:56;;;;;;;17.73;14.73;;;8.30;99.90;;;;;;5073427;28;20535;-44
2020/12/18 00:45:23;;;;;;;16.67;14.10;;;8.30;99.90;;;;;;5073828;28;20428;-45
2020/12/18 00:47:50;;;;;;;21.00;15.50;;;8.40;99.90;;;;;;5072374;28;20470;-45
2020/12/18 00:50:17;;;;;;;14.87;13.23;;;8.40;99.90;;;;;;5070778;28;20483;-44
2020/12/18 00:52:44;;;;;;;23.13;15.17;;;8.50;99.90;;;;;;5071206;28;21013;-45
2020/12/18 00:55:11;;;;;;;19.37;14.40;;;8.50;99.90;;;;;;5072293;28;20467;-45
2020/12/18 00:57:37;;;;;;;17.13;14.30;;;8.40;99.90;;;;;;5073862;28;20546;-45
2020/12/18 01:00:05;;;;;;;17.50;13.73;;;8.50;99.90;;;;;;5073533;28;20464;-46
2020/12/18 01:02:52;;;;;;;17.10;13.90;;;8.40;99.90;;;;;;5033034;28;20539;-45
2020/12/18 01:05:19;;;;;;;16.10;13.87;;;8.60;99.90;;;;;;5032245;28;20449;-46
2020/12/18 01:07:45;;;;;;;19.93;13.77;;;8.60;99.90;;;;;;5032100;28;20479;-45
2020/12/18 01:10:12;;;;;;;19.03;14.30;;;8.50;99.90;;;;;;5035668;28;20851;-45
2020/12/18 01:12:39;;;;;;;20.27;15.10;;;8.90;99.90;;;;;;5031656;28;20547;-45
2020/12/18 01:15:06;;;;;;;18.10;14.60;;;8.50;99.90;;;;;;5033376;28;20950;-46
2020/12/18 01:17:34;;;;;;;20.07;15.80;;;8.40;99.90;;;;;;5031900;28;20506;-45
2020/12/18 01:20:01;;;;;;;17.37;14.37;;;8.80;99.90;;;;;;5031902;28;20586;-46
2020/12/18 01:22:28;;;;;;;17.70;14.10;;;8.60;99.90;;;;;;5057304;28;20822;-45
2020/12/18 01:24:54;;;;;;;18.70;15.90;;;8.60;99.90;;;;;;5072841;28;20802;-46
2020/12/18 01:27:22;;;;;;;19.03;14.50;;;8.70;99.90;;;;;;5071531;28;21217;-45
2020/12/18 01:29:49;;;;;;;19.00;16.13;;;8.40;99.90;;;;;;5072952;28;20927;-46
2020/12/18 01:32:18;;;;;;;16.50;14.03;;;8.90;99.90;;;;;;5071557;28;20448;-46
2020/12/18 01:34:48;;;;;;;20.53;14.50;;;8.50;99.90;;;;;;5071711;28;20539;-46
2020/12/18 01:37:19;;;;;;;19.57;16.13;;;8.90;99.90;;;;;;5070697;28;20472;-47
2020/12/18 01:40:01;;;;;;;19.30;15.20;;;8.40;99.90;;;;;;5071669;28;20488;-46
2020/12/18 01:42:35;;;;;;;21.80;15.00;;;8.40;99.90;;;;;;5071291;28;20951;-46
2020/12/18 01:45:02;;;;;;;19.40;15.80;;;8.30;99.90;;;;;;5071388;28;20457;-45
2020/12/18 01:47:49;;;;;;;19.53;15.13;;;8.40;99.90;;;;;;5072426;28;20973;-46
2020/12/18 01:50:16;;;;;;;17.20;14.63;;;8.50;99.90;;;;;;5071078;28;20452;-45
2020/12/18 01:52:51;;;;;;;20.37;16.60;;;8.50;99.90;;;;;;5066493;28;20463;-45
2020/12/18 01:55:28;;;;;;;21.33;16.43;;;8.10;99.90;;;;;;5071197;28;20444;-45
2020/12/18 01:57:56;;;;;;;21.83;15.13;;;8.20;99.90;;;;;;5071345;28;20476;-45
2020/12/18 02:00:31;;;;;;;21.07;16.10;;;8.00;99.90;;;;;;5069454;28;20456;-46
2020/12/18 02:02:58;;;;;;;20.57;15.33;;;8.10;99.90;;;;;;5051635;28;20570;-45
2020/12/18 02:05:59;;;;;;;19.43;16.10;;;8.10;99.90;;;;;;5036396;28;20553;-45
2020/12/18 02:08:42;;;;;;;17.43;15.03;;;8.40;99.90;;;;;;5050887;28;20463;-46
2020/12/18 02:11:35;;;;;;;19.20;15.27;;;8.40;99.90;;;;;;5047904;28;20497;-45
2020/12/18 02:14:13;;;;;;;17.23;15.00;;;8.00;99.90;;;;;;5031125;28;20454;-45
2020/12/18 02:16:41;;;;;;;18.00;15.10;;;8.20;99.90;;;;;;5031111;28;20453;-45
2020/12/18 02:19:17;;;;;;;18.43;15.57;;;8.00;99.90;;;;;;5031135;28;20473;-44
2020/12/18 02:21:44;;;;;;;17.37;15.20;;;8.10;99.90;;;;;;5049536;28;20984;-44
2020/12/18 02:24:24;;;;;;;20.10;16.30;;;8.30;99.90;;;;;;5070303;28;20573;-46
2020/12/18 02:26:52;;;;;;;17.10;14.77;;;8.20;99.90;;;;;;5070571;28;20923;-44
2020/12/18 02:29:19;;;;;;;23.83;15.97;;;8.00;99.90;;;;;;5070509;28;20539;-44
2020/12/18 02:31:54;;;;;;;15.80;14.13;;;8.50;99.90;;;;;;5070524;28;20453;-45
2020/12/18 02:34:27;;;;;;;20.90;14.80;;;8.10;99.90;;;;;;5070135;28;20451;-45
2020/12/18 02:36:59;;;;;;;25.63;16.17;;;8.40;99.90;;;;;;5070374;28;20453;-45
2020/12/18 02:39:28;;;;;;;22.53;16.53;;;8.10;99.90;;;;;;5070427;28;20518;-45
2020/12/18 02:42:00;;;;;;;20.73;15.20;;;8.10;99.90;;;;;;5070369;28;20455;-45
2020/12/18 02:44:47;;;;;;;21.10;15.93;;;8.20;99.90;;;;;;5071780;28;20947;-44
2020/12/18 02:47:32;;;;;;;18.23;14.77;;;8.40;99.90;;;;;;5071725;28;20481;-45
2020/12/18 02:50:00;;;;;;;19.80;16.37;;;8.60;99.90;;;;;;5070312;28;20964;-45
2020/12/18 02:52:40;;;;;;;24.87;15.80;;;8.10;99.90;;;;;;5066675;28;20463;-46
2020/12/18 02:55:43;;;;;;;19.20;15.33;;;8.00;99.90;;;;;;5029306;28;20445;-45
2020/12/18 02:58:30;;;;;;;22.00;15.33;;;8.00;99.90;;;;;;5068760;28;20829;-44
2020/12/18 03:00:58;;;;;;;19.50;15.27;;;8.10;99.90;;;;;;5064579;28;20489;-44
2020/12/18 03:03:25;;;;;;;18.77;15.20;;;8.00;99.90;;;;;;5049850;28;20472;-44
2020/12/18 03:06:04;;;;;;;21.20;16.20;;;8.10;99.90;;;;;;5050382;28;20953;-45
2020/12/18 03:08:40;;;;;;;17.90;16.00;;;8.00;99.90;;;;;;5051915;28;20541;-46
2020/12/18 03:11:09;;;;;;;19.50;15.23;;;8.00;99.90;;;;;;5051616;28;20499;-46
2020/12/18 03:13:37;;;;;;;23.03;16.73;;;7.90;99.90;;;;;;5050016;28;20449;-46
2020/12/18 03:16:04;;;;;;;21.30;15.97;;;8.10;99.90;;;;;;5050191;28;20448;-45
2020/12/18 03:19:06;;;;;;;19.07;14.83;;;8.20;99.90;;;;;;5045360;28;20449;-45
2020/12/18 03:21:33;;;;;;;19.67;15.47;;;8.00;99.90;;;;;;5059659;28;20458;-46
2020/12/18 03:24:31;;;;;;;20.43;16.30;;;8.20;99.90;;;;;;5060706;28;20491;-45
2020/12/18 03:27:34;;;;;;;23.50;16.27;;;8.30;99.90;;;;;;5059482;28;20463;-46
2020/12/18 03:30:06;;;;;;;21.30;15.53;;;8.60;99.90;;;;;;5070288;28;20481;-46
2020/12/18 03:32:33;;;;;;;22.30;15.43;;;8.20;99.90;;;;;;5070124;28;20442;-46
2020/12/18 03:35:07;;;;;;;23.60;17.90;;;8.10;99.90;;;;;;5069332;28;20458;-46
2020/12/18 03:37:37;;;;;;;22.73;16.27;;;8.10;99.90;;;;;;5069259;28;20498;-46
2020/12/18 03:40:07;;;;;;;20.73;16.83;;;8.00;99.90;;;;;;5064367;28;20890;-46
2020/12/18 03:42:38;;;;;;;26.93;18.00;;;8.00;99.90;;;;;;5069949;28;20451;-46
2020/12/18 03:45:07;;;;;;;27.80;18.50;;;8.00;99.90;;;;;;5069905;28;20508;-46
2020/12/18 03:47:52;;;;;;;24.17;17.30;;;8.10;99.90;;;;;;5071556;28;20484;-46
2020/12/18 03:50:25;;;;;;;21.20;16.30;;;8.00;99.90;;;;;;5070354;28;20462;-46
2020/12/18 03:52:57;;;;;;;23.13;17.20;;;7.70;99.90;;;;;;5069802;28;20517;-46
2020/12/18 03:55:24;;;;;;;21.33;16.20;;;8.00;99.90;;;;;;5069902;28;20520;-46
2020/12/18 03:58:10;;;;;;;21.97;15.93;;;7.80;99.90;;;;;;5071745;28;20451;-46
2020/12/18 04:01:10;;;;;;;24.63;17.17;;;8.20;99.90;;;;;;5064458;28;20554;-46
2020/12/18 04:03:37;;;;;;;20.03;16.40;;;7.60;99.90;;;;;;5052917;28;20514;-46
2020/12/18 04:06:08;;;;;;;22.10;16.93;;;7.60;99.90;;;;;;5053274;28;20454;-46
2020/12/18 04:08:34;;;;;;;24.80;16.87;;;7.70;99.90;;;;;;5053386;28;20999;-45
2020/12/18 04:11:13;;;;;;;23.80;17.43;;;7.60;99.90;;;;;;5064342;28;20537;-44
2020/12/18 04:14:11;;;;;;;20.83;17.37;;;7.50;99.90;;;;;;5050170;28;20463;-44
2020/12/18 04:16:54;;;;;;;25.10;17.50;;;7.70;99.90;;;;;;5073549;28;20447;-44
2020/12/18 04:19:21;;;;;;;31.63;18.03;;;7.30;99.90;;;;;;5073534;28;20512;-44
2020/12/18 04:21:48;;;;;;;20.53;16.57;;;7.40;99.90;;;;;;5073148;28;20489;-45
2020/12/18 04:24:34;;;;;;;26.10;18.10;;;7.30;99.90;;;;;;5072953;28;20457;-45
2020/12/18 04:27:00;;;;;;;23.20;17.20;;;7.20;99.90;;;;;;5073039;28;20450;-45
2020/12/18 04:29:27;;;;;;;20.23;16.13;;;7.50;99.90;;;;;;5074364;28;20470;-44
2020/12/18 04:31:54;;;;;;;27.20;18.37;;;7.70;99.90;;;;;;5073126;28;20447;-45
2020/12/18 04:34:21;;;;;;;23.87;19.10;;;7.70;99.90;;;;;;5072671;28;20444;-45
2020/12/18 04:37:00;;;;;;;27.20;19.13;;;7.80;99.90;;;;;;5072776;28;20461;-45
2020/12/18 04:39:46;;;;;;;26.13;18.67;;;7.70;99.90;;;;;;5072597;28;20528;-45
2020/12/18 04:42:14;;;;;;;26.77;19.60;;;7.60;99.90;;;;;;5074119;28;20940;-46
2020/12/18 04:44:40;;;;;;;24.83;18.00;;;7.70;99.90;;;;;;5072560;28;20513;-45
2020/12/18 04:47:14;;;;;;;21.80;18.00;;;7.40;99.90;;;;;;5074361;28;20454;-45
2020/12/18 04:49:42;;;;;;;24.10;18.07;;;7.70;99.90;;;;;;5074277;28;20467;-46
2020/12/18 04:52:22;;;;;;;24.27;17.27;;;7.60;99.90;;;;;;5072457;28;20446;-46
2020/12/18 04:54:58;;;;;;;27.20;19.30;;;7.30;99.90;;;;;;5073043;28;20446;-46
2020/12/18 04:57:57;;;;;;;22.20;18.00;;;7.60;99.90;;;;;;5050760;28;20794;-45
2020/12/18 05:00:26;;;;;;;22.17;19.10;;;7.50;99.90;;;;;;5071447;28;20501;-45
2020/12/18 05:03:26;;;;;;;24.47;18.40;;;7.70;99.90;;;;;;5052660;28;20509;-46
2020/12/18 05:05:53;;;;;;;26.50;17.63;;;7.30;99.90;;;;;;5052733;28;20447;-46
2020/12/18 05:08:19;;;;;;;22.13;18.20;;;6.90;99.90;;;;;;5051773;28;20455;-45
2020/12/18 05:10:46;;;;;;;28.07;21.27;;;7.50;99.90;;;;;;5059797;28;20454;-44
2020/12/18 05:13:22;;;;;;;25.43;17.70;;;7.80;99.90;;;;;;5071725;28;20450;-44
2020/12/18 05:15:59;;;;;;;23.00;17.60;;;7.90;99.90;;;;;;5072254;28;20453;-47
2020/12/18 05:18:49;;;;;;;23.90;16.83;;;7.50;99.90;;;;;;5072126;28;20562;-45
2020/12/18 05:21:39;;;;;;;22.60;17.50;;;7.70;99.90;;;;;;5072018;28;20505;-45
2020/12/18 05:24:09;;;;;;;24.13;16.73;;;7.70;99.90;;;;;;5071941;28;20483;-45
2020/12/18 05:26:41;;;;;;;25.70;18.83;;;7.60;99.90;;;;;;5072073;28;20454;-47
2020/12/18 05:29:10;;;;;;;21.13;18.80;;;7.60;99.90;;;;;;5071807;28;20456;-44
2020/12/18 05:31:59;;;;;;;22.70;18.90;;;7.90;99.90;;;;;;5065547;28;20954;-45
2020/12/18 05:34:39;;;;;;;22.83;18.07;;;7.60;99.90;;;;;;5073013;28;20443;-45
2020/12/18 05:37:35;;;;;;;26.70;17.80;;;7.60;99.90;;;;;;5072752;28;20475;-45
2020/12/18 05:40:07;;;;;;;22.87;17.20;;;7.80;99.90;;;;;;5069603;28;20508;-46
2020/12/18 05:42:56;;;;;;;25.53;18.30;;;7.50;99.90;;;;;;5073174;28;20525;-45
2020/12/18 05:45:29;;;;;;;25.33;19.00;;;7.90;99.90;;;;;;5073126;28;20509;-44
2020/12/18 05:48:31;;;;;;;29.43;20.47;;;8.00;99.90;;;;;;5062743;28;21211;-45
2020/12/18 05:51:07;;;;;;;26.10;18.30;;;8.10;99.90;;;;;;5075151;28;20442;-45
2020/12/18 05:53:35;;;;;;;24.67;18.80;;;8.00;99.90;;;;;;5074365;28;20451;-45
2020/12/18 05:56:29;;;;;;;25.37;16.87;;;8.00;99.90;;;;;;5075779;28;20509;-44
2020/12/18 05:58:57;;;;;;;24.63;17.90;;;8.10;99.90;;;;;;5075093;28;20812;-45
2020/12/18 06:01:41;;;;;;;23.20;17.20;;;8.00;99.90;;;;;;5063235;28;20437;-46
2020/12/18 06:04:46;;;;;;;21.20;15.20;;;8.00;99.90;;;;;;5043703;28;20574;-46
2020/12/18 06:07:30;;;;;;;25.00;17.17;;;8.00;99.90;;;;;;5053352;28;20476;-45
2020/12/18 06:10:06;;;;;;;22.13;16.23;;;7.80;99.90;;;;;;5055481;28;20456;-46
2020/12/18 06:13:04;;;;;;;20.43;16.63;;;8.20;99.90;;;;;;5074050;28;20456;-45
2020/12/18 06:15:59;;;;;;;22.17;17.33;;;8.00;99.90;;;;;;5074688;28;20452;-45
2020/12/18 06:18:44;;;;;;;23.40;17.90;;;8.00;99.90;;;;;;5074112;28;20478;-46
2020/12/18 06:21:14;;;;;;;27.10;18.43;;;8.20;99.90;;;;;;5074359;28;20489;-45
2020/12/18 06:23:45;;;;;;;21.40;17.40;;;8.30;99.90;;;;;;5073981;28;20511;-45
2020/12/18 06:26:38;;;;;;;25.53;17.00;;;8.00;99.90;;;;;;5073839;28;20534;-45
2020/12/18 06:29:17;;;;;;;23.07;19.20;;;8.10;99.90;;;;;;5074424;28;21020;-45
2020/12/18 06:32:27;;;;;;;26.93;18.40;;;8.20;99.90;;;;;;5076605;28;20448;-45
2020/12/18 06:35:28;;;;;;;25.10;18.10;;;7.90;99.90;;;;;;5076547;28;20536;-45
2020/12/18 06:38:26;;;;;;;27.00;20.37;;;8.00;99.90;;;;;;5074474;28;20510;-46
2020/12/18 06:41:26;;;;;;;25.87;18.73;;;7.80;99.90;;;;;;5058282;28;21002;-45
2020/12/18 06:44:33;;;;;;;22.17;17.23;;;7.60;99.90;;;;;;5074219;28;20486;-44
2020/12/18 06:47:27;;;;;;;25.97;18.77;;;8.10;99.90;;;;;;5074443;28;20520;-46
2020/12/18 06:50:25;;;;;;;25.77;20.90;;;7.70;99.90;;;;;;5037353;28;20474;-47
2020/12/18 06:53:18;;;;;;;26.23;20.87;;;7.60;99.90;;;;;;5058771;28;20830;-45
2020/12/18 06:56:26;;;;;;;24.20;18.17;;;7.80;99.90;;;;;;5075633;28;20448;-45
2020/12/18 06:59:20;;;;;;;21.10;17.43;;;7.40;99.90;;;;;;5075133;28;20439;-45
2020/12/18 07:01:48;;;;;;;23.77;18.20;;;7.80;99.90;;;;;;5063701;28;20476;-45
2020/12/18 07:04:21;;;;;;;26.67;19.37;;;7.30;99.90;;;;;;5054735;28;20468;-45
2020/12/18 07:06:48;;;;;;;27.90;18.80;;;7.70;99.90;;;;;;5053999;28;20455;-45
2020/12/18 07:09:17;;;;;;;26.07;19.10;;;7.50;99.90;;;;;;5055655;28;20743;-45
2020/12/18 07:11:45;;;;;;;26.53;20.13;;;7.30;99.90;;;;;;5071650;28;20580;-48
2020/12/18 07:14:15;;;;;;;23.93;18.57;;;7.80;99.90;;;;;;5072519;28;20433;-47
2020/12/18 07:16:52;;;;;;;29.17;19.53;;;7.40;99.90;;;;;;5072795;28;20477;-46
2020/12/18 07:19:19;;;;;;;23.87;18.43;;;7.30;99.90;;;;;;5072740;28;20418;-45
2020/12/18 07:22:01;;;;;;;25.33;18.93;;;7.40;99.90;;;;;;5072410;28;20469;-45
2020/12/18 07:24:27;;;;;;;26.10;19.30;;;7.40;99.90;;;;;;5071870;28;20590;-45
2020/12/18 07:26:54;;;;;;;25.73;19.37;;;7.40;99.90;;;;;;5072890;28;20438;-46
2020/12/18 07:29:20;;;;;;;25.53;19.90;;;7.30;99.90;;;;;;5072925;28;20441;-45
2020/12/18 07:31:48;;;;;;;25.63;20.60;;;7.40;99.90;;;;;;5072648;28;20482;-45
2020/12/18 07:34:14;;;;;;;28.37;19.20;;;7.60;99.90;;;;;;5073084;28;20515;-45
2020/12/18 07:36:41;;;;;;;24.80;18.30;;;6.70;99.90;;;;;;5076006;28;20444;-44
2020/12/18 07:39:10;;;;;;;24.57;19.50;;;7.30;99.90;;;;;;5076461;28;20445;-45
2020/12/18 07:41:37;;;;;;;25.93;20.23;;;6.90;99.90;;;;;;5073129;28;20453;-46
2020/12/18 07:44:05;;;;;;;28.87;20.50;;;7.20;99.90;;;;;;5063824;28;20483;-46
2020/12/18 07:46:33;;;;;;;30.83;18.37;;;7.20;99.90;;;;;;5057439;28;20589;-46
2020/12/18 07:49:08;;;;;;;29.23;21.10;;;6.70;99.90;;;;;;5056795;28;20463;-46
2020/12/18 07:51:36;;;;;;;30.23;20.77;;;6.90;99.90;;;;;;5057237;28;20403;-46
2020/12/18 07:54:03;;;;;;;28.30;20.77;;;6.90;99.90;;;;;;5056868;28;20440;-45
2020/12/18 07:56:29;;;;;;;27.90;21.00;;;7.10;99.90;;;;;;5056049;28;20564;-45
2020/12/18 07:59:02;;;;;;;25.47;21.00;;;7.40;99.90;;;;;;5056541;28;21029;-46
2020/12/18 08:01:30;;;;;;;27.33;22.00;;;7.30;99.90;;;;;;5054493;28;21052;-46
2020/12/18 08:03:59;;;;;;;31.57;22.10;;;6.90;99.90;;;;;;5054087;28;20990;-44
2020/12/18 08:06:28;;;;;;;27.60;20.70;;;7.30;99.90;;;;;;5055787;28;20427;-47
2020/12/18 08:08:57;;;;;;;27.33;21.37;;;7.40;99.90;;;;;;5055968;28;20483;-46
2020/12/18 08:11:25;;;;;;;27.53;21.03;;;7.30;99.90;;;;;;5060919;28;20461;-45
2020/12/18 08:13:52;;;;;;;30.50;21.10;;;7.40;99.90;;;;;;5074930;28;20524;-44
2020/12/18 08:16:21;;;;;;;28.50;20.73;;;7.30;99.90;;;;;;5076694;28;20410;-45
2020/12/18 08:18:50;;;;;;;30.33;22.23;;;7.40;99.90;;;;;;5076526;28;20795;-45
2020/12/18 08:21:20;;;;;;;37.07;24.00;;;7.50;99.90;;;;;;5077183;28;20445;-45
2020/12/18 08:23:55;;;;;;;29.50;21.87;;;7.40;99.90;;;;;;5076117;28;20873;-47
2020/12/18 08:26:23;;;;;;;30.27;23.10;;;7.50;99.90;;;;;;5076539;28;20440;-46
2020/12/18 08:28:52;;;;;;;24.43;20.90;;;7.40;99.90;;;;;;5077903;28;20457;-44
2020/12/18 08:31:19;;;;;;;29.27;22.20;;;7.20;99.90;;;;;;5078082;28;20397;-45
2020/12/18 08:33:56;;;;;;;31.60;25.30;;;7.20;99.90;;;;;;5077219;28;20427;-45
2020/12/18 08:36:25;;;;;;;27.70;21.53;;;7.10;99.90;;;;;;5076121;28;20438;-45
2020/12/18 08:39:04;;;;;;;25.70;21.57;;;7.10;99.90;;;;;;5076813;28;20454;-45
2020/12/18 08:41:43;;;;;;;27.13;20.47;;;7.20;99.90;;;;;;5073409;28;20451;-46
2020/12/18 08:44:11;;;;;;;26.80;21.37;;;7.30;99.90;;;;;;5076113;28;20752;-46
2020/12/18 08:46:38;;;;;;;26.17;20.83;;;7.40;99.90;;;;;;5075402;28;20429;-46
2020/12/18 08:49:17;;;;;;;24.83;19.57;;;7.30;99.90;;;;;;5075821;28;20455;-45
2020/12/18 08:51:44;;;;;;;25.87;19.33;;;7.40;99.90;;;;;;5076478;28;20424;-47
2020/12/18 08:54:31;;;;;;;28.67;20.77;;;7.00;99.90;;;;;;5076373;28;20525;-46
2020/12/18 08:57:18;;;;;;;25.33;19.37;;;7.40;99.90;;;;;;5076671;28;20430;-47
2020/12/18 09:00:08;;;;;;;25.57;19.47;;;7.20;99.90;;;;;;5076215;28;20568;-47
2020/12/18 09:02:39;;;;;;;24.93;19.80;;;7.10;99.90;;;;;;5057672;28;20441;-44
2020/12/18 09:05:14;;;;;;;27.30;19.90;;;7.40;99.90;;;;;;5056583;28;20471;-47
2020/12/18 09:07:42;;;;;;;32.57;21.37;;;7.60;99.90;;;;;;5056266;28;20472;-46
2020/12/18 09:10:10;;;;;;;26.83;20.27;;;7.30;99.90;;;;;;5051300;28;20423;-46
2020/12/18 09:12:41;;;;;;;27.70;20.00;;;7.50;99.90;;;;;;5033361;28;20429;-46
2020/12/18 09:15:18;;;;;;;27.23;20.20;;;7.50;99.90;;;;;;5032568;28;20444;-46
2020/12/18 09:17:45;;;;;;;27.10;20.40;;;7.50;99.90;;;;;;5033801;28;20457;-46
2020/12/18 09:20:23;;;;;;;23.53;20.30;;;7.50;99.90;;;;;;5033628;28;20532;-46
2020/12/18 09:22:55;;;;;;;28.17;22.23;;;7.40;99.90;;;;;;5033892;28;20890;-46
2020/12/18 09:25:22;;;;;;;29.83;21.37;;;7.60;99.90;;;;;;5034460;28;20529;-48
2020/12/18 09:27:53;;;;;;;33.03;20.73;;;7.40;99.90;;;;;;5033547;28;20455;-46
2020/12/18 09:30:24;;;;;;;29.30;20.50;;;7.40;99.90;;;;;;5033260;28;20490;-46
2020/12/18 09:33:25;;;;;;;29.53;22.13;;;7.50;99.90;;;;;;5033748;28;20758;-46
2020/12/18 09:35:53;;;;;;;25.77;20.57;;;7.70;99.90;;;;;;5035919;28;20448;-45
2020/12/18 09:38:25;;;;;;;28.70;20.83;;;7.40;99.90;;;;;;5034741;28;20493;-47
2020/12/18 09:40:53;;;;;;;26.10;19.70;;;7.60;99.90;;;;;;5038191;28;20453;-46
2020/12/18 09:43:20;;;;;;;23.90;20.10;;;7.50;99.90;;;;;;5074793;28;20430;-46
2020/12/18 09:45:47;;;;;;;24.13;19.77;;;7.60;99.90;;;;;;5074651;28;20877;-47
2020/12/18 09:48:14;;;;;;;25.40;20.00;;;7.60;99.90;;;;;;5074780;28;20455;-46
2020/12/18 09:50:41;;;;;;;25.17;20.13;;;7.50;99.90;;;;;;5075391;28;20510;-46
2020/12/18 09:53:07;;;;;;;26.27;20.50;;;7.40;99.90;;;;;;5074821;28;20442;-45
2020/12/18 09:55:35;;;;;;;24.77;17.90;;;7.60;99.90;;;;;;5074920;28;20445;-46
2020/12/18 09:58:04;;;;;;;22.43;18.33;;;8.20;99.90;;;;;;5073939;28;20451;-46
2020/12/18 10:00:31;;;;;;;23.63;19.03;;;7.80;99.90;;;;;;5073502;28;20458;-46
2020/12/18 10:02:58;;;;;;;23.07;18.70;;;8.10;99.90;;;;;;5054468;28;20508;-45
2020/12/18 10:05:25;;;;;;;23.13;19.07;;;8.30;99.90;;;;;;5054845;28;20475;-46
2020/12/18 10:07:52;;;;;;;31.87;18.80;;;7.90;99.90;;;;;;5054646;28;20450;-46
2020/12/18 10:10:18;;;;;;;22.47;18.47;;;8.50;99.90;;;;;;5058422;28;20456;-46
2020/12/18 10:12:45;;;;;;;25.30;18.93;;;8.50;99.90;;;;;;5074291;28;20439;-45
2020/12/18 10:15:12;;;;;;;23.80;18.10;;;8.40;99.90;;;;;;5074678;28;20427;-45
2020/12/18 10:17:39;;;;;;;24.80;18.60;;;8.40;99.90;;;;;;5073875;28;20793;-45
2020/12/18 10:20:06;;;;;;;26.87;19.17;;;8.50;99.90;;;;;;5074219;28;20440;-46
2020/12/18 10:22:33;;;;;;;22.23;16.80;;;8.40;99.90;;;;;;5073864;28;20444;-46
2020/12/18 10:25:00;;;;;;;23.20;19.07;;;8.40;99.90;;;;;;5074397;28;20778;-45
2020/12/18 10:27:26;;;;;;;23.33;16.97;;;8.50;99.90;;;;;;5074504;28;20827;-45
2020/12/18 10:29:54;;;;;;;21.20;16.63;;;8.50;99.90;;;;;;5074518;28;20447;-46
2020/12/18 10:32:25;;;;;;;21.87;16.67;;;8.50;99.90;;;;;;5074119;28;20460;-46
2020/12/18 10:34:51;;;;;;;23.90;16.23;;;8.90;99.90;;;;;;5074735;28;20912;-45
2020/12/18 10:37:18;;;;;;;21.13;15.27;;;8.50;99.90;;;;;;5074539;28;21025;-46
2020/12/18 10:39:45;;;;;;;22.83;17.10;;;8.40;99.90;;;;;;5075231;28;20571;-46
2020/12/18 10:42:11;;;;;;;19.87;16.53;;;8.10;99.90;;;;;;5072072;28;20460;-47
2020/12/18 10:44:38;;;;;;;24.07;16.20;;;8.90;99.90;;;;;;5074184;28;20886;-47
2020/12/18 10:47:05;;;;;;;20.37;17.23;;;8.80;99.90;;;;;;5072608;28;20475;-47
2020/12/18 10:49:32;;;;;;;23.50;16.90;;;8.80;99.90;;;;;;5072442;28;20464;-47
2020/12/18 10:51:59;;;;;;;22.80;17.07;;;9.00;99.90;;;;;;5073408;28;20490;-45
2020/12/18 10:54:25;;;;;;;21.60;17.33;;;8.90;99.90;;;;;;5074079;28;20476;-47
2020/12/18 10:56:53;;;;;;;23.50;18.20;;;8.70;99.90;;;;;;5073758;28;20433;-47
2020/12/18 10:59:20;;;;;;;23.70;18.33;;;8.50;99.90;;;;;;5073461;28;20862;-46
2020/12/18 11:01:51;;;;;;;22.80;18.20;;;8.60;99.90;;;;;;5059404;28;21064;-46
2020/12/18 11:04:18;;;;;;;21.23;16.80;;;8.50;99.90;;;;;;5052989;28;20472;-46
2020/12/18 11:06:46;;;;;;;21.00;16.37;;;8.50;99.90;;;;;;5061516;28;20464;-45
2020/12/18 11:09:12;;;;;;;23.20;17.30;;;8.60;99.90;;;;;;5072473;28;20445;-47
2020/12/18 11:11:39;;;;;;;21.30;17.43;;;8.90;99.90;;;;;;5057123;28;20478;-47
2020/12/18 11:14:06;;;;;;;19.53;15.97;;;8.60;99.90;;;;;;5056721;28;20917;-45
2020/12/18 11:16:32;;;;;;;27.90;18.20;;;8.60;99.90;;;;;;5056703;28;20444;-46
2020/12/18 11:19:01;;;;;;;27.93;16.00;;;8.60;99.90;;;;;;5056341;28;20502;-46
2020/12/18 11:21:28;;;;;;;25.40;16.43;;;8.70;99.90;;;;;;5056367;28;20476;-46
2020/12/18 11:23:56;;;;;;;21.60;17.00;;;8.60;99.90;;;;;;5056113;28;20532;-46
2020/12/18 11:26:23;;;;;;;17.60;14.20;;;8.70;99.90;;;;;;5056192;28;20807;-46
2020/12/18 11:28:50;;;;;;;21.20;15.67;;;8.50;99.90;;;;;;5056235;28;20545;-46
2020/12/18 11:31:16;;;;;;;18.83;16.50;;;8.90;99.90;;;;;;5057071;28;20989;-47
2020/12/18 11:33:43;;;;;;;23.33;17.80;;;8.80;99.90;;;;;;5075714;28;20901;-46
2020/12/18 11:36:10;;;;;;;20.33;17.00;;;8.80;99.90;;;;;;5073946;28;21035;-47
2020/12/18 11:38:36;;;;;;;21.93;16.50;;;9.10;99.90;;;;;;5076469;28;20456;-47
2020/12/18 11:41:04;;;;;;;20.17;15.47;;;8.90;99.90;;;;;;5076419;28;20824;-46
2020/12/18 11:43:31;;;;;;;20.50;16.00;;;9.00;99.90;;;;;;5076466;28;20949;-47
2020/12/18 11:45:59;;;;;;;21.90;15.10;;;9.10;99.90;;;;;;5077218;28;20428;-46
2020/12/18 11:48:26;;;;;;;19.60;15.87;;;9.00;99.90;;;;;;5075977;28;20452;-45
2020/12/18 11:50:53;;;;;;;27.23;16.00;;;8.90;99.90;;;;;;5076292;28;20435;-46
2020/12/18 11:53:19;;;;;;;19.17;14.47;;;9.00;99.90;;;;;;5072457;28;20467;-45
2020/12/18 11:55:46;;;;;;;19.20;14.50;;;8.90;99.90;;;;;;5076027;28;20423;-46
2020/12/18 11:58:14;;;;;;;16.00;12.90;;;9.00;99.90;;;;;;5075779;28;20452;-46
2020/12/18 12:00:43;;;;;;;19.07;14.73;;;9.10;99.90;;;;;;5072049;28;20532;-46
2020/12/18 12:03:09;;;;;;;21.43;12.67;;;9.20;99.90;;;;;;5055746;28;20437;-46
2020/12/18 12:05:36;;;;;;;17.50;13.37;;;9.00;99.90;;;;;;5056537;28;20473;-48
2020/12/18 12:08:03;;;;;;;22.70;12.87;;;9.20;99.90;;;;;;5053842;28;20481;-47
2020/12/18 12:10:30;;;;;;;19.13;12.97;;;9.30;99.90;;;;;;5055818;28;20446;-46
2020/12/18 12:12:58;;;;;;;19.57;14.80;;;9.30;99.90;;;;;;5055722;28;20434;-46
2020/12/18 12:15:25;;;;;;;15.30;12.23;;;9.10;99.90;;;;;;5055612;28;20448;-48
2020/12/18 12:17:52;;;;;;;19.38;14.00;;;9.30;99.90;;;;;;5056841;28;20441;-48
2020/12/18 12:20:18;;;;;;;16.13;13.10;;;9.30;99.90;;;;;;5075095;28;20191;-46
2020/12/18 12:22:46;;;;;;;16.30;12.50;;;9.40;99.90;;;;;;5073492;28;20450;-46
2020/12/18 12:25:13;;;;;;;20.83;13.10;;;9.60;99.90;;;;;;5073902;28;20537;-46
2020/12/18 12:27:39;;;;;;;20.90;13.10;;;9.20;99.90;;;;;;5073841;28;20457;-47
2020/12/18 12:30:07;;;;;;;17.03;13.40;;;9.30;99.90;;;;;;5075672;28;20434;-46
2020/12/18 12:32:35;;;;;;;13.00;11.47;;;9.50;99.90;;;;;;5073748;28;20456;-47
2020/12/18 12:35:02;;;;;;;20.67;13.07;;;9.40;99.90;;;;;;5074221;28;20907;-47
2020/12/18 12:37:28;;;;;;;14.23;12.30;;;9.30;99.90;;;;;;5074416;28;20461;-47
2020/12/18 12:39:55;;;;;;;16.20;12.20;;;9.30;99.90;;;;;;5074078;28;20856;-47
2020/12/18 12:42:21;;;;;;;18.67;14.50;;;9.40;99.90;;;;;;5074405;28;20429;-45
2020/12/18 12:44:48;;;;;;;18.20;12.93;;;9.30;99.90;;;;;;5071191;28;20481;-46
2020/12/18 12:47:14;;;;;;;15.03;12.30;;;9.30;99.90;;;;;;5074270;28;20473;-46
2020/12/18 12:49:42;;;;;;;16.97;12.33;;;9.40;99.90;;;;;;5075160;28;20432;-46
2020/12/18 12:52:08;;;;;;;22.17;12.93;;;9.60;99.90;;;;;;5073914;28;20436;-47
2020/12/18 12:54:35;;;;;;;15.93;12.60;;;9.50;99.90;;;;;;5073930;28;20444;-46
2020/12/18 12:57:02;;;;;;;19.30;11.30;;;9.50;99.90;;;;;;5072192;28;20480;-45
2020/12/18 12:59:28;;;;;;;15.97;12.40;;;9.70;99.90;;;;;;5073436;28;20482;-46
2020/12/18 13:01:55;;;;;;;16.60;12.33;;;9.20;99.90;;;;;;5059719;28;20514;-45
2020/12/18 13:04:21;;;;;;;23.03;13.03;;;9.30;99.90;;;;;;5054045;28;20548;-44